createdAt,value
2018-10-12T00:00:49.285Z,27.94
2018-10-12T00:01:49.257Z,28.06
2018-10-12T00:02:49.271Z,28.06
2018-10-12T00:03:49.190Z,28.04
2018-10-12T00:04:49.182Z,28.06
2018-10-12T00:05:49.426Z,28.06
2018-10-12T00:06:49.112Z,27.96
2018-10-12T00:07:49.073Z,28.01
2018-10-12T00:08:49.056Z,28.03
2018-10-12T00:09:49.029Z,28.23
2018-10-12T00:10:49.514Z,28.14
2018-10-12T00:11:48.961Z,27.89
2018-10-12T00:12:48.931Z,27.89
2018-10-12T00:13:48.907Z,27.89
2018-10-12T00:14:48.877Z,27.86
2018-10-12T00:15:48.838Z,27.96
2018-10-12T00:16:48.800Z,28.03
2018-10-12T00:17:48.775Z,28.03
2018-10-12T00:18:48.753Z,28.04
2018-10-12T00:19:48.735Z,28.09
2018-10-12T00:20:48.702Z,28.11
2018-10-12T00:21:48.824Z,28.19
2018-10-12T00:22:48.631Z,28.13
2018-10-12T00:23:48.602Z,28.13
2018-10-12T00:24:48.616Z,28.13
2018-10-12T00:25:48.550Z,28.28
2018-10-12T00:26:48.520Z,28.16
2018-10-12T00:27:48.623Z,28.23
2018-10-12T00:28:48.441Z,28.29
2018-10-12T00:29:48.412Z,28.35
2018-10-12T00:30:48.398Z,28.31
2018-10-12T00:31:48.361Z,28.29
2018-10-12T00:32:48.331Z,28.29
2018-10-12T00:33:48.301Z,28.28
2018-10-12T00:34:48.269Z,28.22
2018-10-12T00:35:48.252Z,28.22
2018-10-12T00:36:48.232Z,28.17
2018-10-12T00:37:48.172Z,28.10
2018-10-12T00:38:48.348Z,28.07
2018-10-12T00:39:48.147Z,28.09
2018-10-12T00:40:48.104Z,28.11
2018-10-12T00:41:48.067Z,28.11
2018-10-12T00:42:48.066Z,28.03
2018-10-12T00:43:48.009Z,28.01
2018-10-12T00:44:47.966Z,28.07
2018-10-12T00:45:47.947Z,27.94
2018-10-12T00:46:47.915Z,27.89
2018-10-12T00:47:47.887Z,27.71
2018-10-12T00:48:47.966Z,27.54
2018-10-12T00:49:47.836Z,26.91
2018-10-12T00:50:47.791Z,26.50
2018-10-12T00:51:47.778Z,26.36
2018-10-12T00:52:47.748Z,26.27
2018-10-12T00:53:47.711Z,26.35
2018-10-12T00:54:47.661Z,26.46
2018-10-12T00:55:47.651Z,26.55
2018-10-12T00:56:47.624Z,26.59
2018-10-12T00:57:47.586Z,26.67
2018-10-12T00:58:47.551Z,26.65
2018-10-12T00:59:47.534Z,26.65
2018-10-12T01:00:47.485Z,26.68
2018-10-12T01:01:47.670Z,26.72
2018-10-12T01:02:47.452Z,26.81
2018-10-12T01:03:47.419Z,26.77
2018-10-12T01:04:47.366Z,26.87
2018-10-12T01:05:47.349Z,26.79
2018-10-12T01:06:47.428Z,26.86
2018-10-12T01:08:47.258Z,26.98
2018-10-12T01:09:47.224Z,27.11
2018-10-12T01:10:47.186Z,27.13
2018-10-12T01:11:47.152Z,27.09
2018-10-12T01:12:47.143Z,27.05
2018-10-12T01:13:47.090Z,27.16
2018-10-12T01:14:47.079Z,27.14
2018-10-12T01:15:47.048Z,27.23
2018-10-12T01:16:47.054Z,27.21
2018-10-12T01:17:46.984Z,27.28
2018-10-12T01:18:46.958Z,27.38
2018-10-12T01:19:46.922Z,27.42
2018-10-12T01:20:46.905Z,27.47
2018-10-12T01:21:46.878Z,27.46
2018-10-12T01:22:46.838Z,27.50
2018-10-12T01:23:46.816Z,27.47
2018-10-12T01:24:46.796Z,27.42
2018-10-12T01:25:46.741Z,27.24
2018-10-12T01:26:46.729Z,27.02
2018-10-12T01:27:46.687Z,26.99
2018-10-12T01:28:46.920Z,27.11
2018-10-12T01:29:46.621Z,27.13
2018-10-12T01:30:46.589Z,27.23
2018-10-12T01:31:46.554Z,27.28
2018-10-12T01:32:46.544Z,27.31
2018-10-12T01:33:46.500Z,27.26
2018-10-12T01:34:46.627Z,27.31
2018-10-12T01:35:46.444Z,27.36
2018-10-12T01:36:46.405Z,27.42
2018-10-12T01:37:46.426Z,27.43
2018-10-12T01:38:46.338Z,27.53
2018-10-12T01:39:46.314Z,27.54
2018-10-12T01:40:46.298Z,27.61
2018-10-12T01:41:46.247Z,27.61
2018-10-12T01:42:46.222Z,27.70
2018-10-12T01:43:46.206Z,27.67
2018-10-12T01:44:46.161Z,27.80
2018-10-12T01:45:46.217Z,27.59
2018-10-12T01:46:46.277Z,27.64
2018-10-12T01:47:46.063Z,27.62
2018-10-12T01:48:46.055Z,27.64
2018-10-12T01:49:46.014Z,27.58
2018-10-12T01:50:45.974Z,27.48
2018-10-12T01:51:45.962Z,27.39
2018-10-12T01:52:45.958Z,27.26
2018-10-12T01:53:45.966Z,27.19
2018-10-12T01:54:45.874Z,27.19
2018-10-12T01:55:45.834Z,27.29
2018-10-12T01:56:45.793Z,27.36
2018-10-12T01:57:45.787Z,27.38
2018-10-12T01:58:45.762Z,27.42
2018-10-12T01:59:45.726Z,27.51
2018-10-12T02:00:45.937Z,27.58
2018-10-12T02:01:45.659Z,27.61
2018-10-12T02:02:45.630Z,27.62
2018-10-12T02:03:45.599Z,27.59
2018-10-12T02:04:45.568Z,27.67
2018-10-12T02:05:45.537Z,27.54
2018-10-12T02:06:45.648Z,27.61
2018-10-12T02:07:45.483Z,27.57
2018-10-12T02:08:45.442Z,27.64
2018-10-12T02:09:45.429Z,27.61
2018-10-12T02:10:45.377Z,27.67
2018-10-12T02:11:45.341Z,27.59
2018-10-12T02:12:45.325Z,27.69
2018-10-12T02:13:45.293Z,27.67
2018-10-12T02:14:45.249Z,27.69
2018-10-12T02:15:45.253Z,27.76
2018-10-12T02:16:45.194Z,27.76
2018-10-12T02:17:45.170Z,27.77
2018-10-12T02:18:45.138Z,27.86
2018-10-12T02:19:45.100Z,27.80
2018-10-12T02:20:45.081Z,27.79
2018-10-12T02:21:45.074Z,27.80
2018-10-12T02:22:45.024Z,27.77
2018-10-12T02:23:44.976Z,27.85
2018-10-12T02:24:44.942Z,27.73
2018-10-12T02:25:44.913Z,27.67
2018-10-12T02:26:44.891Z,27.59
2018-10-12T02:27:44.871Z,27.59
2018-10-12T02:28:44.837Z,27.59
2018-10-12T02:29:44.811Z,27.48
2018-10-12T02:30:44.775Z,27.54
2018-10-12T02:31:44.745Z,27.51
2018-10-12T02:32:45.052Z,27.57
2018-10-12T02:33:44.687Z,27.58
2018-10-12T02:34:44.646Z,27.50
2018-10-12T02:35:44.632Z,27.47
2018-10-12T02:36:44.595Z,27.48
2018-10-12T02:37:44.563Z,27.38
2018-10-12T02:38:44.692Z,27.50
2018-10-12T02:39:44.500Z,27.46
2018-10-12T02:40:44.481Z,27.59
2018-10-12T02:41:44.438Z,27.54
2018-10-12T02:42:44.413Z,27.54
2018-10-12T02:43:44.381Z,27.53
2018-10-12T02:44:44.339Z,27.53
2018-10-12T02:45:44.319Z,27.47
2018-10-12T02:46:44.290Z,27.54
2018-10-12T02:47:44.258Z,27.53
2018-10-12T02:48:44.233Z,27.62
2018-10-12T02:49:44.212Z,27.62
2018-10-12T02:50:44.175Z,27.61
2018-10-12T02:51:44.147Z,27.50
2018-10-12T02:52:44.102Z,27.36
2018-10-12T02:53:44.078Z,27.32
2018-10-12T02:54:44.045Z,27.43
2018-10-12T02:55:44.008Z,27.38
2018-10-12T02:56:43.999Z,27.43
2018-10-12T02:57:43.949Z,27.43
2018-10-12T02:58:43.925Z,27.46
2018-10-12T02:59:43.891Z,27.38
2018-10-12T03:00:43.859Z,27.36
2018-10-12T03:01:43.829Z,27.35
2018-10-12T03:02:43.812Z,27.38
2018-10-12T03:03:43.775Z,27.41
2018-10-12T03:04:43.744Z,27.36
2018-10-12T03:05:43.816Z,27.32
2018-10-12T03:06:43.674Z,27.43
2018-10-12T03:07:43.641Z,27.46
2018-10-12T03:08:43.620Z,27.48
2018-10-12T03:09:43.592Z,27.46
2018-10-12T03:10:43.593Z,27.50
2018-10-12T03:11:43.824Z,27.54
2018-10-12T03:12:43.520Z,27.58
2018-10-12T03:13:43.461Z,27.58
2018-10-12T03:14:43.442Z,27.48
2018-10-12T03:15:43.401Z,27.46
2018-10-12T03:16:43.376Z,27.51
2018-10-12T03:17:43.702Z,27.50
2018-10-12T03:18:43.407Z,27.47
2018-10-12T03:19:43.284Z,27.43
2018-10-12T03:20:43.257Z,27.61
2018-10-12T03:21:43.225Z,27.50
2018-10-12T03:22:43.212Z,27.61
2018-10-12T03:23:43.178Z,27.50
2018-10-12T03:24:43.238Z,27.58
2018-10-12T03:25:43.106Z,27.54
2018-10-12T03:26:43.077Z,27.51
2018-10-12T03:27:43.044Z,27.47
2018-10-12T03:28:43.013Z,27.43
2018-10-12T03:29:42.981Z,27.43
2018-10-12T03:30:42.950Z,27.35
2018-10-12T03:31:42.913Z,27.28
2018-10-12T03:32:42.888Z,27.11
2018-10-12T03:33:42.858Z,27.06
2018-10-12T03:34:42.823Z,27.16
2018-10-12T03:35:42.794Z,27.11
2018-10-12T03:36:42.888Z,27.14
2018-10-12T03:37:42.738Z,27.17
2018-10-12T03:38:43.012Z,27.17
2018-10-12T03:39:42.669Z,27.14
2018-10-12T03:40:42.652Z,27.26
2018-10-12T03:41:42.617Z,27.21
2018-10-12T03:42:42.599Z,27.24
2018-10-12T03:43:42.561Z,27.29
2018-10-12T03:44:42.672Z,27.21
2018-10-12T03:45:42.488Z,27.19
2018-10-12T03:46:42.463Z,27.09
2018-10-12T03:47:42.425Z,27.02
2018-10-12T03:48:42.401Z,27.06
2018-10-12T03:49:42.378Z,26.99
2018-10-12T03:50:42.375Z,27.02
2018-10-12T03:51:42.325Z,27.09
2018-10-12T03:52:42.278Z,27.06
2018-10-12T03:53:42.255Z,27.01
2018-10-12T03:54:42.525Z,27.06
2018-10-12T03:55:42.184Z,27.10
2018-10-12T03:56:42.158Z,27.14
2018-10-12T03:57:42.125Z,27.19
2018-10-12T03:58:42.105Z,27.24
2018-10-12T03:59:42.271Z,27.26
2018-10-12T04:00:42.036Z,27.19
2018-10-12T04:01:42.014Z,27.11
2018-10-12T04:02:42.054Z,27.20
2018-10-12T04:03:41.958Z,27.17
2018-10-12T04:04:41.906Z,27.13
2018-10-12T04:05:41.877Z,27.11
2018-10-12T04:06:41.851Z,27.09
2018-10-12T04:07:41.834Z,27.10
2018-10-12T04:08:41.818Z,27.14
2018-10-12T04:09:41.766Z,27.11
2018-10-12T04:10:41.747Z,27.09
2018-10-12T04:11:41.709Z,27.16
2018-10-12T04:12:41.745Z,27.11
2018-10-12T04:13:41.639Z,27.10
2018-10-12T04:14:41.607Z,27.13
2018-10-12T04:15:41.585Z,27.10
2018-10-12T04:16:41.560Z,27.06
2018-10-12T04:17:41.528Z,26.99
2018-10-12T04:18:41.484Z,26.95
2018-10-12T04:19:41.464Z,26.99
2018-10-12T04:20:41.434Z,26.96
2018-10-12T04:21:41.396Z,27.09
2018-10-12T04:22:41.370Z,27.11
2018-10-12T04:23:41.334Z,27.09
2018-10-12T04:24:41.308Z,27.21
2018-10-12T04:25:41.274Z,27.28
2018-10-12T04:26:41.236Z,27.28
2018-10-12T04:27:41.217Z,27.29
2018-10-12T04:28:41.178Z,27.26
2018-10-12T04:29:41.143Z,27.28
2018-10-12T04:30:41.121Z,27.24
2018-10-12T04:31:41.098Z,27.21
2018-10-12T04:32:41.072Z,27.20
2018-10-12T04:33:41.034Z,27.16
2018-10-12T04:34:41.004Z,27.21
2018-10-12T04:35:40.962Z,27.23
2018-10-12T04:36:40.939Z,27.29
2018-10-12T04:37:40.910Z,27.20
2018-10-12T04:38:40.885Z,27.14
2018-10-12T04:39:40.843Z,27.09
2018-10-12T04:40:40.814Z,27.09
2018-10-12T04:41:40.792Z,27.06
2018-10-12T04:42:40.913Z,27.06
2018-10-12T04:43:40.730Z,27.04
2018-10-12T04:44:40.689Z,26.92
2018-10-12T04:45:40.683Z,26.84
2018-10-12T04:46:40.641Z,26.72
2018-10-12T04:47:40.607Z,26.73
2018-10-12T04:48:40.879Z,26.77
2018-10-12T04:49:40.550Z,26.67
2018-10-12T04:50:40.514Z,26.69
2018-10-12T04:51:40.477Z,26.61
2018-10-12T04:52:40.453Z,26.64
2018-10-12T04:53:40.431Z,26.58
2018-10-12T04:54:40.590Z,26.57
2018-10-12T04:55:40.359Z,26.58
2018-10-12T04:56:40.338Z,26.47
2018-10-12T04:57:40.300Z,26.44
2018-10-12T04:58:40.274Z,26.49
2018-10-12T04:59:40.255Z,26.59
2018-10-12T05:00:40.226Z,26.62
2018-10-12T05:01:40.185Z,26.64
2018-10-12T05:02:40.153Z,26.65
2018-10-12T05:03:40.130Z,26.73
2018-10-12T05:04:40.099Z,26.84
2018-10-12T05:05:40.070Z,26.69
2018-10-12T05:06:40.042Z,26.68
2018-10-12T05:07:40.033Z,26.73
2018-10-12T05:08:39.985Z,26.76
2018-10-12T05:09:39.940Z,26.73
2018-10-12T05:10:40.025Z,26.84
2018-10-12T05:11:39.877Z,26.83
2018-10-12T05:12:39.855Z,26.89
2018-10-12T05:13:39.826Z,26.81
2018-10-12T05:14:39.793Z,26.77
2018-10-12T05:15:39.765Z,26.87
2018-10-12T05:16:39.767Z,26.84
2018-10-12T05:17:39.712Z,26.87
2018-10-12T05:18:39.673Z,26.94
2018-10-12T05:19:39.648Z,26.95
2018-10-12T05:20:39.604Z,26.96
2018-10-12T05:21:39.580Z,26.94
2018-10-12T05:22:39.548Z,26.94
2018-10-12T05:23:39.528Z,27.01
2018-10-12T05:24:39.491Z,26.98
2018-10-12T05:25:39.464Z,26.96
2018-10-12T05:26:39.532Z,26.99
2018-10-12T05:27:39.597Z,26.98
2018-10-12T05:28:39.357Z,27.05
2018-10-12T05:29:39.347Z,26.95
2018-10-12T05:30:39.305Z,26.98
2018-10-12T05:31:39.275Z,27.02
2018-10-12T05:32:39.243Z,26.91
2018-10-12T05:33:39.216Z,26.89
2018-10-12T05:34:39.226Z,26.89
2018-10-12T05:35:39.156Z,26.72
2018-10-12T05:36:39.117Z,26.83
2018-10-12T05:37:39.088Z,26.84
2018-10-12T05:38:39.065Z,26.72
2018-10-12T05:39:39.029Z,26.76
2018-10-12T05:40:38.996Z,26.77
2018-10-12T05:41:38.961Z,26.80
2018-10-12T05:42:38.973Z,26.83
2018-10-12T05:43:38.907Z,26.81
2018-10-12T05:44:38.870Z,26.87
2018-10-12T05:45:38.845Z,26.76
2018-10-12T05:46:38.821Z,26.83
2018-10-12T05:47:38.787Z,26.77
2018-10-12T05:48:38.911Z,26.87
2018-10-12T05:49:38.715Z,26.86
2018-10-12T05:50:38.689Z,26.81
2018-10-12T05:51:38.653Z,26.86
2018-10-12T05:52:38.637Z,26.72
2018-10-12T05:53:38.598Z,26.76
2018-10-12T05:54:38.572Z,26.64
2018-10-12T05:55:38.588Z,26.67
2018-10-12T05:56:38.510Z,26.77
2018-10-12T05:57:38.479Z,26.77
2018-10-12T05:58:38.447Z,26.74
2018-10-12T05:59:38.409Z,26.65
2018-10-12T06:00:38.431Z,26.72
2018-10-12T06:01:38.370Z,26.67
2018-10-12T06:02:38.324Z,26.68
2018-10-12T06:03:38.292Z,26.68
2018-10-12T06:04:38.256Z,26.64
2018-10-12T06:05:38.225Z,26.64
2018-10-12T06:06:38.205Z,26.64
2018-10-12T06:07:38.175Z,26.62
2018-10-12T06:08:38.141Z,26.67
2018-10-12T06:09:38.148Z,26.61
2018-10-12T06:10:38.082Z,26.61
2018-10-12T06:11:38.047Z,26.62
2018-10-12T06:12:38.024Z,26.72
2018-10-12T06:13:38.010Z,26.65
2018-10-12T06:15:38.003Z,26.65
2018-10-12T06:16:37.897Z,26.74
2018-10-12T06:17:37.864Z,26.69
2018-10-12T06:18:37.834Z,26.67
2018-10-12T06:19:37.851Z,26.76
2018-10-12T06:20:38.122Z,26.67
2018-10-12T06:21:37.851Z,26.62
2018-10-12T06:22:37.713Z,26.65
2018-10-12T06:23:37.714Z,26.62
2018-10-12T06:24:37.658Z,26.44
2018-10-12T06:25:37.618Z,26.57
2018-10-12T06:26:37.783Z,26.47
2018-10-12T06:27:37.552Z,26.52
2018-10-12T06:28:37.518Z,26.47
2018-10-12T06:29:37.492Z,26.50
2018-10-12T06:30:37.473Z,26.62
2018-10-12T06:31:37.438Z,26.62
2018-10-12T06:32:37.446Z,26.62
2018-10-12T06:33:37.365Z,26.62
2018-10-12T06:34:37.342Z,26.61
2018-10-12T06:35:37.319Z,26.64
2018-10-12T06:36:37.272Z,26.62
2018-10-12T06:37:37.245Z,26.61
2018-10-12T06:38:37.254Z,26.61
2018-10-12T06:39:37.184Z,26.57
2018-10-12T06:40:37.158Z,26.67
2018-10-12T06:41:37.454Z,26.61
2018-10-12T06:42:37.096Z,26.55
2018-10-12T06:43:37.065Z,26.47
2018-10-12T06:44:37.024Z,26.29
2018-10-12T06:45:36.996Z,26.21
2018-10-12T06:46:37.034Z,25.89
2018-10-12T06:47:36.961Z,25.64
2018-10-12T06:48:36.916Z,25.56
2018-10-12T06:49:36.881Z,25.39
2018-10-12T06:50:36.845Z,25.35
2018-10-12T06:51:36.818Z,25.35
2018-10-12T06:52:36.791Z,25.31
2018-10-12T06:53:36.759Z,25.43
2018-10-12T06:54:36.729Z,25.52
2018-10-12T06:55:36.695Z,25.44
2018-10-12T06:56:36.663Z,25.59
2018-10-12T06:57:36.639Z,25.71
2018-10-12T06:58:36.596Z,25.69
2018-10-12T06:59:36.570Z,25.74
2018-10-12T07:00:36.541Z,25.89
2018-10-12T07:01:36.500Z,25.84
2018-10-12T07:02:36.818Z,25.98
2018-10-12T07:03:36.461Z,25.99
2018-10-12T07:04:36.412Z,25.99
2018-10-12T07:05:36.445Z,26.01
2018-10-12T07:06:36.358Z,25.98
2018-10-12T07:07:36.325Z,25.97
2018-10-12T07:08:36.301Z,25.93
2018-10-12T07:09:36.262Z,25.82
2018-10-12T07:10:36.262Z,25.74
2018-10-12T07:11:36.201Z,25.72
2018-10-12T07:12:36.172Z,25.61
2018-10-12T07:13:36.413Z,25.67
2018-10-12T07:14:36.099Z,25.69
2018-10-12T07:15:36.078Z,25.72
2018-10-12T07:16:36.249Z,25.74
2018-10-12T07:17:36.025Z,25.86
2018-10-12T07:18:36.427Z,25.84
2018-10-12T07:19:35.997Z,25.84
2018-10-12T07:20:35.922Z,25.97
2018-10-12T07:21:36.493Z,26.01
2018-10-12T07:22:35.851Z,25.91
2018-10-12T07:23:35.869Z,25.75
2018-10-12T07:24:35.800Z,25.72
2018-10-12T07:25:35.767Z,25.75
2018-10-12T07:26:36.096Z,25.75
2018-10-12T07:27:35.805Z,25.86
2018-10-12T07:28:36.170Z,25.83
2018-10-12T07:29:35.648Z,25.77
2018-10-12T07:30:35.606Z,25.84
2018-10-12T07:31:36.012Z,25.74
2018-10-12T07:32:35.561Z,25.72
2018-10-12T07:33:35.519Z,25.62
2018-10-12T07:34:35.492Z,25.68
2018-10-12T07:35:35.461Z,25.83
2018-10-12T07:36:35.426Z,25.77
2018-10-12T07:37:35.400Z,25.75
2018-10-12T07:38:35.362Z,25.90
2018-10-12T07:39:35.334Z,25.86
2018-10-12T07:40:35.553Z,25.94
2018-10-12T07:41:35.288Z,25.98
2018-10-12T07:42:35.772Z,25.97
2018-10-12T07:43:35.211Z,25.87
2018-10-12T07:44:35.174Z,25.80
2018-10-12T07:45:35.154Z,25.69
2018-10-12T07:46:35.116Z,25.74
2018-10-12T07:47:35.076Z,25.65
2018-10-12T07:48:35.072Z,25.69
2018-10-12T07:49:35.024Z,25.69
2018-10-12T07:50:35.698Z,25.67
2018-10-12T07:51:34.972Z,25.67
2018-10-12T07:52:34.936Z,25.71
2018-10-12T07:53:34.896Z,25.69
2018-10-12T07:54:35.171Z,25.69
2018-10-12T07:55:34.838Z,25.74
2018-10-12T07:56:34.850Z,25.68
2018-10-12T07:57:34.777Z,25.47
2018-10-12T07:58:34.755Z,25.30
2018-10-12T07:59:35.102Z,25.22
2018-10-12T08:00:34.761Z,25.16
2018-10-12T08:01:34.657Z,24.97
2018-10-12T08:02:34.622Z,25.01
2018-10-12T08:03:34.599Z,24.90
2018-10-12T08:04:34.574Z,24.83
2018-10-12T08:05:34.531Z,25.00
2018-10-12T08:06:34.543Z,24.85
2018-10-12T08:07:34.474Z,24.83
2018-10-12T08:08:34.435Z,25.00
2018-10-12T08:09:34.466Z,25.10
2018-10-12T08:10:34.367Z,25.12
2018-10-12T08:11:34.340Z,25.16
2018-10-12T08:12:34.304Z,25.15
2018-10-12T08:13:34.298Z,25.24
2018-10-12T08:14:34.250Z,25.27
2018-10-12T08:15:34.225Z,25.17
2018-10-12T08:16:34.218Z,25.12
2018-10-12T08:17:34.158Z,25.20
2018-10-12T08:18:34.574Z,25.17
2018-10-12T08:19:34.090Z,25.25
2018-10-12T08:20:34.248Z,25.27
2018-10-12T08:21:34.044Z,25.31
2018-10-12T08:22:33.997Z,25.28
2018-10-12T08:24:33.951Z,25.28
2018-10-12T08:25:34.031Z,25.35
2018-10-12T08:26:33.879Z,25.25
2018-10-12T08:27:33.846Z,25.20
2018-10-12T08:28:34.179Z,25.24
2018-10-12T08:29:33.789Z,25.15
2018-10-12T08:30:33.846Z,25.15
2018-10-12T08:31:33.766Z,25.07
2018-10-12T08:32:33.695Z,25.05
2018-10-12T08:33:33.969Z,25.15
2018-10-12T08:34:33.626Z,25.17
2018-10-12T08:35:33.673Z,25.25
2018-10-12T08:36:33.636Z,25.20
2018-10-12T08:37:33.530Z,25.02
2018-10-12T08:38:33.758Z,25.01
2018-10-12T08:39:33.478Z,25.00
2018-10-12T08:40:33.441Z,25.02
2018-10-12T08:41:33.412Z,25.15
2018-10-12T08:42:33.377Z,25.07
2018-10-12T08:43:33.357Z,25.12
2018-10-12T08:44:33.326Z,25.16
2018-10-12T08:45:33.286Z,25.02
2018-10-12T08:46:33.258Z,24.87
2018-10-12T08:47:33.242Z,24.52
2018-10-12T08:48:33.188Z,24.39
2018-10-12T08:49:33.154Z,24.27
2018-10-12T08:50:33.130Z,24.20
2018-10-12T08:51:33.098Z,24.04
2018-10-12T08:52:33.065Z,24.07
2018-10-12T08:53:33.025Z,24.02
2018-10-12T08:54:33.000Z,24.05
2018-10-12T08:55:32.999Z,24.07
2018-10-12T08:56:32.938Z,24.13
2018-10-12T08:57:32.923Z,24.05
2018-10-12T08:58:32.878Z,24.20
2018-10-12T08:59:32.971Z,24.17
2018-10-12T09:00:32.819Z,24.19
2018-10-12T09:01:32.796Z,24.35
2018-10-12T09:02:32.754Z,24.38
2018-10-12T09:03:32.714Z,24.38
2018-10-12T09:04:32.690Z,24.35
2018-10-12T09:05:33.068Z,24.41
2018-10-12T09:06:32.641Z,24.52
2018-10-12T09:07:32.600Z,24.56
2018-10-12T09:08:32.567Z,24.44
2018-10-12T09:09:32.545Z,24.52
2018-10-12T09:10:32.493Z,24.57
2018-10-12T09:11:32.671Z,24.54
2018-10-12T09:12:32.444Z,24.53
2018-10-12T09:13:32.408Z,24.49
2018-10-12T09:14:32.375Z,24.44
2018-10-12T09:15:32.350Z,24.38
2018-10-12T09:16:32.318Z,24.32
2018-10-12T09:17:32.286Z,24.39
2018-10-12T09:18:32.251Z,24.45
2018-10-12T09:19:32.225Z,24.49
2018-10-12T09:20:32.293Z,24.52
2018-10-12T09:21:32.155Z,24.63
2018-10-12T09:22:32.121Z,24.69
2018-10-12T09:23:32.104Z,24.76
2018-10-12T09:24:32.064Z,24.76
2018-10-12T09:25:32.023Z,24.87
2018-10-12T09:26:32.001Z,24.90
2018-10-12T09:27:31.967Z,24.88
2018-10-12T09:28:31.942Z,24.92
2018-10-12T09:29:31.911Z,24.76
2018-10-12T09:30:31.881Z,24.92
2018-10-12T09:31:31.852Z,25.02
2018-10-12T09:32:31.810Z,25.09
2018-10-12T09:33:31.781Z,25.31
2018-10-12T09:34:31.768Z,25.46
2018-10-12T09:35:31.713Z,25.52
2018-10-12T09:36:31.739Z,25.59
2018-10-12T09:37:31.651Z,25.67
2018-10-12T09:38:31.614Z,25.69
2018-10-12T09:39:31.602Z,25.67
2018-10-12T09:40:31.548Z,25.80
2018-10-12T09:41:31.549Z,25.82
2018-10-12T09:42:31.752Z,25.97
2018-10-12T09:43:31.461Z,26.02
2018-10-12T09:44:31.446Z,25.98
2018-10-12T09:45:31.403Z,26.11
2018-10-12T09:46:31.386Z,26.27
2018-10-12T09:47:31.344Z,26.35
2018-10-12T09:48:31.300Z,26.35
2018-10-12T09:49:31.278Z,26.52
2018-10-12T09:50:31.249Z,26.68
2018-10-12T09:51:31.209Z,26.99
2018-10-12T09:52:31.176Z,27.29
2018-10-12T09:53:31.152Z,27.67
2018-10-12T09:54:31.123Z,27.89
2018-10-12T09:55:31.089Z,28.11
2018-10-12T09:56:31.054Z,28.43
2018-10-12T09:57:31.038Z,28.53
2018-10-12T09:58:31.003Z,28.68
2018-10-12T09:59:30.959Z,28.87
2018-10-12T10:00:30.939Z,29.11
2018-10-12T10:01:30.905Z,29.23
2018-10-12T10:02:30.882Z,29.40
2018-10-12T10:03:30.846Z,29.44
2018-10-12T10:04:30.810Z,29.52
2018-10-12T10:05:30.787Z,29.60
2018-10-12T10:06:30.744Z,29.70
2018-10-12T10:07:30.744Z,29.75
2018-10-12T10:08:30.812Z,29.93
2018-10-12T10:09:30.652Z,29.99
2018-10-12T10:10:30.619Z,30.07
2018-10-12T10:11:30.579Z,30.12
2018-10-12T10:12:30.557Z,30.09
2018-10-12T10:13:30.534Z,30.14
2018-10-12T10:14:30.756Z,30.08
2018-10-12T10:15:30.468Z,30.19
2018-10-12T10:16:30.430Z,30.27
2018-10-12T10:17:30.413Z,30.46
2018-10-12T10:18:30.400Z,30.49
2018-10-12T10:19:30.353Z,30.50
2018-10-12T10:20:30.307Z,30.61
2018-10-12T10:21:30.291Z,30.72
2018-10-12T10:22:30.319Z,30.90
2018-10-12T10:23:30.226Z,31.06
2018-10-12T10:24:30.180Z,31.21
2018-10-12T10:25:30.154Z,31.40
2018-10-12T10:26:30.126Z,31.43
2018-10-12T10:27:30.101Z,31.67
2018-10-12T10:28:30.158Z,31.76
2018-10-12T10:29:30.032Z,31.88
2018-10-12T10:30:29.996Z,32.11
2018-10-12T10:31:30.000Z,32.29
2018-10-12T10:32:29.934Z,32.52
2018-10-12T10:33:29.922Z,32.64
2018-10-12T10:34:29.897Z,32.70
2018-10-12T10:35:29.853Z,32.86
2018-10-12T10:36:29.820Z,32.96
2018-10-12T10:37:29.791Z,33.14
2018-10-12T10:38:29.756Z,33.27
2018-10-12T10:39:29.719Z,33.41
2018-10-12T10:40:29.702Z,33.49
2018-10-12T10:41:29.678Z,33.60
2018-10-12T10:42:29.635Z,33.63
2018-10-12T10:43:29.617Z,33.63
2018-10-12T10:44:29.591Z,33.76
2018-10-12T10:45:29.544Z,33.94
2018-10-12T10:46:29.594Z,34.02
2018-10-12T10:47:29.756Z,34.00
2018-10-12T10:48:29.448Z,34.00
2018-10-12T10:49:29.431Z,34.23
2018-10-12T10:50:29.396Z,34.34
2018-10-12T10:51:29.368Z,34.41
2018-10-12T10:52:29.333Z,34.56
2018-10-12T10:53:29.311Z,34.69
2018-10-12T10:54:29.274Z,34.76
2018-10-12T10:55:29.598Z,34.80
2018-10-12T10:56:29.216Z,34.95
2018-10-12T10:57:29.182Z,35.07
2018-10-12T10:58:29.148Z,35.20
2018-10-12T10:59:29.113Z,35.25
2018-10-12T11:00:29.097Z,35.30
2018-10-12T11:01:29.075Z,35.45
2018-10-12T11:02:29.034Z,35.45
2018-10-12T11:03:28.996Z,35.58
2018-10-12T11:04:28.980Z,35.76
2018-10-12T11:05:28.946Z,35.86
2018-10-12T11:07:29.150Z,35.85
2018-10-12T11:08:29.020Z,35.62
2018-10-12T11:09:28.974Z,35.73
2018-10-12T11:10:29.633Z,35.81
2018-10-12T11:11:28.932Z,35.66
2018-10-12T11:12:28.751Z,35.60
2018-10-12T11:13:29.189Z,35.26
2018-10-12T11:14:28.680Z,35.29
2018-10-12T11:15:28.643Z,35.13
2018-10-12T11:16:28.627Z,34.63
2018-10-12T11:17:28.588Z,34.11
2018-10-12T11:18:28.587Z,34.01
2018-10-12T11:19:28.642Z,34.24
2018-10-12T11:20:28.501Z,34.26
2018-10-12T11:21:28.474Z,34.35
2018-10-12T11:22:28.449Z,34.26
2018-10-12T11:23:28.412Z,34.02
2018-10-12T11:24:28.401Z,34.22
2018-10-12T11:25:28.352Z,34.31
2018-10-12T11:26:28.386Z,34.63
2018-10-12T11:27:28.296Z,34.84
2018-10-12T11:28:28.262Z,34.81
2018-10-12T11:29:28.230Z,34.57
2018-10-12T11:30:28.202Z,34.14
2018-10-12T11:31:28.179Z,34.14
2018-10-12T11:32:28.160Z,34.36
2018-10-12T11:33:28.120Z,34.13
2018-10-12T11:34:28.084Z,33.85
2018-10-12T11:35:28.056Z,33.43
2018-10-12T11:36:28.035Z,33.46
2018-10-12T11:37:27.996Z,32.96
2018-10-12T11:38:28.018Z,32.64
2018-10-12T11:39:27.957Z,32.71
2018-10-12T11:40:28.214Z,32.64
2018-10-12T11:41:27.872Z,32.74
2018-10-12T11:42:27.856Z,32.99
2018-10-12T11:43:27.825Z,33.06
2018-10-12T11:44:27.795Z,33.19
2018-10-12T11:45:27.948Z,33.39
2018-10-12T11:46:27.980Z,33.64
2018-10-12T11:47:27.707Z,33.94
2018-10-12T11:48:27.689Z,34.16
2018-10-12T11:49:27.636Z,34.20
2018-10-12T11:50:27.603Z,34.09
2018-10-12T11:51:27.571Z,34.45
2018-10-12T11:52:27.568Z,34.45
2018-10-12T11:53:27.510Z,34.66
2018-10-12T11:54:27.499Z,34.53
2018-10-12T11:55:27.518Z,34.72
2018-10-12T11:56:27.435Z,34.58
2018-10-12T11:57:28.013Z,34.34
2018-10-12T11:58:27.424Z,34.58
2018-10-12T11:59:27.372Z,34.88
2018-10-12T12:00:27.342Z,35.14
2018-10-12T12:01:27.319Z,35.52
2018-10-12T12:02:27.268Z,35.55
2018-10-12T12:03:27.220Z,35.40
2018-10-12T12:04:27.222Z,35.15
2018-10-12T12:05:27.187Z,34.92
2018-10-12T12:06:27.150Z,34.92
2018-10-12T12:07:27.111Z,34.80
2018-10-12T12:08:27.093Z,34.69
2018-10-12T12:09:27.045Z,34.89
2018-10-12T12:10:27.035Z,35.21
2018-10-12T12:11:26.994Z,35.37
2018-10-12T12:12:26.980Z,35.37
2018-10-12T12:13:27.330Z,35.66
2018-10-12T12:14:26.933Z,35.50
2018-10-12T12:15:26.878Z,35.50
2018-10-12T12:16:26.956Z,34.91
2018-10-12T12:17:26.845Z,34.96
2018-10-12T12:18:26.792Z,35.06
2018-10-12T12:19:27.301Z,34.80
2018-10-12T12:20:26.736Z,34.60
2018-10-12T12:21:26.712Z,34.61
2018-10-12T12:22:26.714Z,34.57
2018-10-12T12:23:26.653Z,34.39
2018-10-12T12:24:26.629Z,34.36
2018-10-12T12:25:26.757Z,34.16
2018-10-12T12:26:26.558Z,34.34
2018-10-12T12:27:26.542Z,34.42
2018-10-12T12:28:26.500Z,34.57
2018-10-12T12:29:26.474Z,34.80
2018-10-12T12:30:26.535Z,34.95
2018-10-12T12:31:26.419Z,34.89
2018-10-12T12:32:26.384Z,34.74
2018-10-12T12:33:26.354Z,34.58
2018-10-12T12:34:26.425Z,34.26
2018-10-12T12:35:26.528Z,34.19
2018-10-12T12:36:26.289Z,34.19
2018-10-12T12:37:26.239Z,34.20
2018-10-12T12:38:26.226Z,34.35
2018-10-12T12:39:26.186Z,34.24
2018-10-12T12:40:26.146Z,34.53
2018-10-12T12:41:26.137Z,34.56
2018-10-12T12:42:26.093Z,34.72
2018-10-12T12:43:26.075Z,34.76
2018-10-12T12:44:26.045Z,34.84
2018-10-12T12:45:26.028Z,34.69
2018-10-12T12:46:26.380Z,34.56
2018-10-12T12:47:26.004Z,34.66
2018-10-12T12:48:26.236Z,34.95
2018-10-12T12:49:26.231Z,35.17
2018-10-12T12:50:25.871Z,35.11
2018-10-12T12:51:25.828Z,35.23
2018-10-12T12:52:26.003Z,35.29
2018-10-12T12:53:25.782Z,35.33
2018-10-12T12:54:25.751Z,35.45
2018-10-12T12:55:25.729Z,35.79
2018-10-12T12:56:25.860Z,35.44